Wales, AK

7:23 AM AKST on March 01, 2015 (GMT -0900)
Tin City LRRS | Change Station
CLOSE
Current Station
Airport
Location: Tin City,
Elevation: 272 ft
Nearby Weather Stations

Elev 272 ft 65.56 °N, 167.92 °W | Updated 28 minutes ago

Light Ice Pellets
Light Ice Pellets
16 °F
Feels Like -1 °F
N
22
Wind Variable Wind from South

Today
High -- | Low -- °F
--% Chance of Precip.
Yesterday
High -- | Low -- °F
Precip. -- in
9:22 AM 7:26 PM
Waxing Gibbous, 86% visible
Pressure 30.46 in
Visibility 2.5 miles
Clouds Overcast 3900 ft
Windchill -1 °F
Dew Point 15 °F
Humidity 96%
Rainfall 0.00 in
Snow Depth Not available.
UV 0 out of 12
Pollen Not available.
Air Quality Not available.
Flu Activity Not available.
METAR PATC 011555Z AUTO 18019KT 2 1/2SM -PL OVC039 M09/M09 A3042 RMK AO2 SNB1454E1529 SLP313 P0000 T10871093

More Conditions Fewer Conditions

Pressure 30.46 in
Visibility 2.5 miles
Clouds Overcast 3900 ft
Windchill -1 °F
Dew Point 15 °F
Humidity 96%
Rainfall 0.00 in
Snow Depth Not available.
UV 0 out of 12
Pollen Not available.
Air Quality Not available.
Flu Activity Not available.
METAR PATC 011555Z AUTO 18019KT 2 1/2SM -PL OVC039 M09/M09 A3042 RMK AO2 SNB1454E1529 SLP313 P0000 T10871093

More Conditions Fewer Conditions

10-Day Weather Forecast

Almanac

Astronomy

Mar. 01, 2015 Rise Set
Actual Time
Civil Twilight
Nautical Twilight
Astronomical Twilight
Moon
Length of Visible Light
Length of Day
Tomorrow will be .
, % of the Moon is Illuminated

Today's Extremes

State Highs State Lows

Community

WunderPhotos

Upload Photos

1,801,446 photos uploaded!

WunderBlogs® & News

Nearby

Air Quality

  Air Quality AQ Index Pollutant
Not available.

Snow Depth

Station Depth Elevation

Earthquake Activity

City Distance Mag. Time & Date
Minimum magnitude displayed is 2.5.

Coastal Water Temperatures

Place Temperature

Nearby Weather Stations